Time;durP1;ratioP1;P1;durP2;ratioP2;P2;SDS_P1;SDS_P2;PMS_P1;PMS_P2;Temp;Humidity;BMP_temperature;BMP_pressure;BME280_temperature;BME280_humidity;BME280_pressure;Samples;Min_cycle;Max_cycle;Signal;HPM_P1;HPM_P2
2023/07/25 00:00:23;;;;;;;10.02;3.72;;;;;;;;;;5008003;28;20602;-70
2023/07/25 00:02:49;;;;;;;6.70;3.42;;;;;;;;;;5006564;28;20187;-70
2023/07/25 00:05:14;;;;;;;11.35;3.58;;;;;;;;;;5009179;28;20195;-70
2023/07/25 00:07:40;;;;;;;10.82;3.35;;;;;;;;;;5003934;28;20183;-70
2023/07/25 00:10:05;;;;;;;13.02;3.78;;;;;;;;;;5008774;28;20256;-69
2023/07/25 00:12:31;;;;;;;8.68;3.20;;;;;;;;;;5007911;28;20198;-70
2023/07/25 00:14:56;;;;;;;9.85;3.03;;;;;;;;;;5010488;28;20231;-71
2023/07/25 00:17:21;;;;;;;11.52;3.35;;;;;;;;;;5008842;28;20214;-70
2023/07/25 00:19:47;;;;;;;7.55;3.45;;;;;;;;;;5025282;28;20191;-71
2023/07/25 00:22:12;;;;;;;10.13;3.13;;;;;;;;;;5008627;28;20191;-70
2023/07/25 00:24:38;;;;;;;10.73;3.88;;;;;;;;;;5000458;28;20584;-70
2023/07/25 00:27:03;;;;;;;12.32;3.60;;;;;;;;;;5018363;28;20222;-71
2023/07/25 00:29:29;;;;;;;10.45;4.38;;;;;;;;;;5010059;28;20668;-71
2023/07/25 00:31:54;;;;;;;5.25;3.22;;;;;;;;;;5010786;28;20539;-71
2023/07/25 00:34:19;;;;;;;10.38;4.13;;;;;;;;;;4999483;28;20449;-71
2023/07/25 00:36:45;;;;;;;12.07;3.75;;;;;;;;;;5026881;28;20667;-71
2023/07/25 00:39:11;;;;;;;9.15;3.78;;;;;;;;;;5011952;28;20286;-70
2023/07/25 00:41:36;;;;;;;7.25;3.55;;;;;;;;;;5010947;28;20183;-70
2023/07/25 00:44:02;;;;;;;13.13;4.10;;;;;;;;;;5012001;28;20246;-70
2023/07/25 00:46:27;;;;;;;8.93;3.72;;;;;;;;;;5003555;28;20219;-72
2023/07/25 00:48:53;;;;;;;12.85;4.22;;;;;;;;;;5008925;28;20285;-70
2023/07/25 00:51:18;;;;;;;13.07;4.22;;;;;;;;;;5013170;28;20195;-70
2023/07/25 00:53:44;;;;;;;12.73;4.28;;;;;;;;;;5001775;28;20685;-70
2023/07/25 00:56:11;;;;;;;9.18;3.97;;;;;;;;;;5007108;28;20765;-70
2023/07/25 00:58:36;;;;;;;7.80;3.80;;;;;;;;;;5006169;28;20207;-70
2023/07/25 01:01:04;;;;;;;10.80;4.30;;;;;;;;;;5003328;28;20642;-71
2023/07/25 01:03:31;;;;;;;11.40;4.20;;;;;;;;;;5007321;28;20191;-71
2023/07/25 01:05:56;;;;;;;11.60;3.88;;;;;;;;;;5012925;28;20317;-71
2023/07/25 01:08:22;;;;;;;11.23;4.30;;;;;;;;;;5006414;28;20879;-70
2023/07/25 01:10:47;;;;;;;12.25;4.20;;;;;;;;;;5004329;28;20198;-71
2023/07/25 01:13:13;;;;;;;10.85;3.85;;;;;;;;;;5003652;28;20611;-71
2023/07/25 01:15:39;;;;;;;11.82;4.78;;;;;;;;;;5001210;28;20258;-71
2023/07/25 01:18:05;;;;;;;12.50;4.07;;;;;;;;;;4991645;28;20207;-70
2023/07/25 01:20:34;;;;;;;11.43;4.07;;;;;;;;;;4983528;28;20703;-70
2023/07/25 01:23:01;;;;;;;10.85;4.70;;;;;;;;;;5006343;28;20205;-70
2023/07/25 01:25:26;;;;;;;11.43;5.03;;;;;;;;;;4994796;28;20191;-70
2023/07/25 01:27:52;;;;;;;12.50;4.93;;;;;;;;;;4996720;28;20229;-71
2023/07/25 01:30:17;;;;;;;7.75;4.70;;;;;;;;;;4995151;28;20230;-70
2023/07/25 01:32:43;;;;;;;8.57;4.80;;;;;;;;;;5005765;28;20300;-70
2023/07/25 01:35:08;;;;;;;9.55;5.10;;;;;;;;;;5003997;28;20214;-70
2023/07/25 01:37:33;;;;;;;11.50;5.00;;;;;;;;;;5011742;28;20218;-71
2023/07/25 01:39:59;;;;;;;13.57;4.88;;;;;;;;;;5008611;28;20194;-71
2023/07/25 01:42:24;;;;;;;10.30;4.65;;;;;;;;;;5001984;28;20186;-71
2023/07/25 01:44:49;;;;;;;11.90;5.30;;;;;;;;;;5011482;28;20689;-72
2023/07/25 01:47:15;;;;;;;9.77;4.65;;;;;;;;;;5013177;28;20203;-72
2023/07/25 01:49:40;;;;;;;12.25;4.93;;;;;;;;;;5012999;28;20213;-71
2023/07/25 01:52:06;;;;;;;8.18;5.57;;;;;;;;;;5027613;28;20625;-70
2023/07/25 01:54:31;;;;;;;18.10;4.90;;;;;;;;;;5005167;28;20203;-72
2023/07/25 01:56:57;;;;;;;13.88;4.90;;;;;;;;;;5005630;28;20226;-71
2023/07/25 01:59:22;;;;;;;11.68;5.07;;;;;;;;;;5011092;28;20273;-70
2023/07/25 02:01:48;;;;;;;18.50;5.35;;;;;;;;;;5001997;28;20543;-70
2023/07/25 02:04:13;;;;;;;12.25;5.65;;;;;;;;;;5008725;28;20276;-71
2023/07/25 02:06:38;;;;;;;15.45;5.22;;;;;;;;;;4985323;28;20659;-71
2023/07/25 02:09:04;;;;;;;12.20;5.22;;;;;;;;;;4995739;28;20198;-72
2023/07/25 02:11:29;;;;;;;13.07;5.57;;;;;;;;;;5010818;28;20186;-72
2023/07/25 02:13:55;;;;;;;11.82;4.93;;;;;;;;;;5009108;28;20270;-72
2023/07/25 02:16:20;;;;;;;7.13;4.95;;;;;;;;;;5010727;28;20206;-71
2023/07/25 02:18:45;;;;;;;6.28;5.03;;;;;;;;;;5015469;28;20252;-71
2023/07/25 02:21:11;;;;;;;11.77;5.45;;;;;;;;;;5009338;28;20276;-72
2023/07/25 02:23:36;;;;;;;13.05;5.47;;;;;;;;;;4996904;28;20286;-72
2023/07/25 02:26:02;;;;;;;7.53;5.40;;;;;;;;;;5016136;28;20272;-72
2023/07/25 02:28:27;;;;;;;8.95;4.93;;;;;;;;;;5011082;28;20330;-72
2023/07/25 02:30:52;;;;;;;11.98;5.32;;;;;;;;;;5011668;28;20241;-72
2023/07/25 02:33:18;;;;;;;13.80;4.80;;;;;;;;;;4996907;28;20218;-72
2023/07/25 02:35:43;;;;;;;13.05;5.60;;;;;;;;;;5010801;28;20214;-71
2023/07/25 02:38:09;;;;;;;13.27;5.55;;;;;;;;;;5009315;28;20277;-72
2023/07/25 02:40:34;;;;;;;11.45;5.53;;;;;;;;;;5004573;28;20191;-71
2023/07/25 02:43:02;;;;;;;9.88;5.53;;;;;;;;;;5003779;28;20206;-71
2023/07/25 02:45:27;;;;;;;13.32;6.03;;;;;;;;;;5001936;28;20179;-71
2023/07/25 02:47:53;;;;;;;10.27;5.53;;;;;;;;;;5010101;28;20206;-71
2023/07/25 02:50:18;;;;;;;10.23;5.82;;;;;;;;;;5008742;28;20273;-71
2023/07/25 02:52:44;;;;;;;10.02;5.53;;;;;;;;;;5006095;28;20191;-72
2023/07/25 02:55:09;;;;;;;16.85;6.28;;;;;;;;;;5009350;28;20297;-72
2023/07/25 02:57:35;;;;;;;13.15;6.03;;;;;;;;;;5010580;28;20207;-71
2023/07/25 03:00:00;;;;;;;15.27;6.10;;;;;;;;;;5008637;28;20206;-71
2023/07/25 03:02:25;;;;;;;12.32;5.32;;;;;;;;;;5000021;28;20666;-71
2023/07/25 03:04:51;;;;;;;12.63;5.78;;;;;;;;;;5000319;28;20207;-71
2023/07/25 03:07:16;;;;;;;13.32;6.70;;;;;;;;;;5005408;28;20200;-72
2023/07/25 03:09:41;;;;;;;15.80;5.90;;;;;;;;;;5003680;28;20611;-72
2023/07/25 03:12:07;;;;;;;14.18;6.00;;;;;;;;;;5010103;28;20214;-71
2023/07/25 03:14:32;;;;;;;10.63;5.88;;;;;;;;;;5016130;28;20246;-71
2023/07/25 03:16:58;;;;;;;9.93;5.80;;;;;;;;;;5010824;28;20690;-71
2023/07/25 03:19:23;;;;;;;14.65;5.32;;;;;;;;;;4993958;28;20191;-72
2023/07/25 03:21:49;;;;;;;11.20;5.70;;;;;;;;;;4991297;28;20219;-72
2023/07/25 03:24:15;;;;;;;12.68;5.82;;;;;;;;;;5002073;28;20195;-71
2023/07/25 03:26:40;;;;;;;17.15;5.55;;;;;;;;;;5010230;28;20194;-71
2023/07/25 03:29:05;;;;;;;13.60;5.80;;;;;;;;;;5000668;28;20194;-71
2023/07/25 03:31:31;;;;;;;11.27;5.03;;;;;;;;;;4999508;28;20264;-71
2023/07/25 03:33:56;;;;;;;10.85;5.22;;;;;;;;;;5007829;28;20333;-71
2023/07/25 03:36:23;;;;;;;9.10;5.82;;;;;;;;;;4996208;28;20248;-71
2023/07/25 03:38:49;;;;;;;9.95;5.82;;;;;;;;;;5004708;28;20217;-71
2023/07/25 03:41:14;;;;;;;9.10;5.57;;;;;;;;;;5005320;28;20186;-71
2023/07/25 03:43:40;;;;;;;9.35;5.18;;;;;;;;;;4997150;28;20198;-70
2023/07/25 03:46:05;;;;;;;10.35;6.13;;;;;;;;;;5010096;28;20225;-72
2023/07/25 03:48:32;;;;;;;9.48;5.40;;;;;;;;;;4996170;28;20186;-72
2023/07/25 03:50:57;;;;;;;14.98;5.57;;;;;;;;;;5011152;28;20838;-72
2023/07/25 03:53:23;;;;;;;8.82;5.50;;;;;;;;;;5009120;28;20199;-72
2023/07/25 03:55:48;;;;;;;12.07;5.70;;;;;;;;;;4999819;28;20261;-71
2023/07/25 03:58:13;;;;;;;11.23;5.88;;;;;;;;;;4999493;28;20201;-72
2023/07/25 04:00:41;;;;;;;9.60;4.70;;;;;;;;;;5000185;28;20199;-71
2023/07/25 04:03:06;;;;;;;10.25;5.05;;;;;;;;;;4991121;28;20191;-72
2023/07/25 04:05:32;;;;;;;13.25;5.45;;;;;;;;;;4990742;28;20206;-72
2023/07/25 04:07:57;;;;;;;11.55;5.65;;;;;;;;;;4993611;28;20673;-72
2023/07/25 04:10:22;;;;;;;10.70;4.95;;;;;;;;;;5012825;28;20199;-72
2023/07/25 04:12:48;;;;;;;9.60;4.72;;;;;;;;;;4994740;28;20233;-72
2023/07/25 04:15:13;;;;;;;11.30;5.25;;;;;;;;;;5011338;28;20355;-72
2023/07/25 04:17:38;;;;;;;9.23;4.55;;;;;;;;;;5006326;28;20576;-72
2023/07/25 04:20:05;;;;;;;10.50;4.80;;;;;;;;;;5013413;28;20202;-72
2023/07/25 04:22:30;;;;;;;12.00;5.13;;;;;;;;;;4995654;28;20186;-71
2023/07/25 04:24:55;;;;;;;13.63;4.95;;;;;;;;;;5010815;28;20195;-71
2023/07/25 04:27:21;;;;;;;8.68;4.55;;;;;;;;;;5006686;28;20369;-72
2023/07/25 04:29:46;;;;;;;12.15;4.80;;;;;;;;;;4999182;28;20757;-71
2023/07/25 04:32:11;;;;;;;9.32;4.75;;;;;;;;;;4995418;28;20285;-72
2023/07/25 04:34:37;;;;;;;14.48;4.13;;;;;;;;;;5016471;28;20194;-71
2023/07/25 04:37:02;;;;;;;10.82;4.10;;;;;;;;;;5004308;28;20686;-72
2023/07/25 04:39:27;;;;;;;15.93;4.47;;;;;;;;;;4993252;28;20195;-72
2023/07/25 04:41:53;;;;;;;16.45;4.63;;;;;;;;;;4998419;28;20326;-71
2023/07/25 04:44:18;;;;;;;9.68;4.30;;;;;;;;;;5013479;28;20695;-70
2023/07/25 04:46:44;;;;;;;8.98;4.18;;;;;;;;;;5012901;28;20194;-71
2023/07/25 04:49:11;;;;;;;10.75;4.30;;;;;;;;;;5013143;28;20195;-70
2023/07/25 04:51:38;;;;;;;13.70;4.38;;;;;;;;;;5011599;28;20191;-70
2023/07/25 04:54:03;;;;;;;9.57;4.43;;;;;;;;;;5013248;28;20190;-70
2023/07/25 04:56:28;;;;;;;11.05;3.97;;;;;;;;;;4997283;28;20242;-72
2023/07/25 04:58:54;;;;;;;9.70;4.10;;;;;;;;;;5005840;28;20195;-70
2023/07/25 05:01:19;;;;;;;10.70;3.90;;;;;;;;;;5004916;28;20564;-70
2023/07/25 05:03:44;;;;;;;10.45;4.22;;;;;;;;;;4994661;28;20223;-70
2023/07/25 05:06:11;;;;;;;14.85;4.10;;;;;;;;;;5002599;28;20186;-71
2023/07/25 05:08:37;;;;;;;9.88;3.80;;;;;;;;;;5004904;28;20183;-70
2023/07/25 05:11:02;;;;;;;9.20;4.00;;;;;;;;;;5011797;28;20240;-71
2023/07/25 05:13:28;;;;;;;10.90;3.97;;;;;;;;;;5004197;28;20615;-70
2023/07/25 05:15:53;;;;;;;5.93;3.35;;;;;;;;;;5007042;28;20203;-70
2023/07/25 05:18:18;;;;;;;7.97;3.92;;;;;;;;;;4998907;28;20212;-70
2023/07/25 05:20:44;;;;;;;8.43;3.95;;;;;;;;;;5004880;28;20600;-71
2023/07/25 05:23:10;;;;;;;8.93;3.47;;;;;;;;;;4995030;28;20199;-70
2023/07/25 05:25:35;;;;;;;8.23;3.70;;;;;;;;;;5011615;28;20294;-70
2023/07/25 05:28:00;;;;;;;12.60;3.05;;;;;;;;;;4994831;28;20361;-71
2023/07/25 05:30:26;;;;;;;9.57;3.60;;;;;;;;;;5008125;28;20210;-70
2023/07/25 05:32:51;;;;;;;11.95;3.22;;;;;;;;;;5009987;28;20324;-71
2023/07/25 05:35:16;;;;;;;11.35;4.05;;;;;;;;;;5019648;28;20240;-71
2023/07/25 05:37:42;;;;;;;10.27;3.88;;;;;;;;;;4981404;28;20195;-71
2023/07/25 05:40:07;;;;;;;8.88;3.50;;;;;;;;;;5002138;28;20199;-72
2023/07/25 05:42:33;;;;;;;12.35;3.33;;;;;;;;;;5001165;28;20647;-70
2023/07/25 05:45:02;;;;;;;11.25;3.20;;;;;;;;;;4999131;28;20196;-71
2023/07/25 05:47:28;;;;;;;12.07;3.10;;;;;;;;;;4992294;28;20180;-70
2023/07/25 05:49:54;;;;;;;8.95;3.10;;;;;;;;;;4996903;28;20294;-71
2023/07/25 05:52:19;;;;;;;8.93;3.00;;;;;;;;;;5025485;28;20614;-70
2023/07/25 05:54:45;;;;;;;10.50;3.53;;;;;;;;;;5011066;28;20261;-71
2023/07/25 05:57:10;;;;;;;7.75;3.25;;;;;;;;;;5009224;28;20193;-71
2023/07/25 05:59:36;;;;;;;8.70;3.25;;;;;;;;;;4988786;28;20625;-71
2023/07/25 06:02:03;;;;;;;7.03;2.92;;;;;;;;;;5006494;28;20182;-71
2023/07/25 06:04:29;;;;;;;6.15;2.75;;;;;;;;;;4998081;28;20210;-73
2023/07/25 06:06:54;;;;;;;11.30;3.00;;;;;;;;;;4999736;28;20218;-71
2023/07/25 06:09:20;;;;;;;9.02;2.85;;;;;;;;;;5003296;28;20187;-70
2023/07/25 06:11:45;;;;;;;9.40;2.88;;;;;;;;;;4985458;28;20893;-69
2023/07/25 06:14:10;;;;;;;7.15;3.42;;;;;;;;;;5009901;28;20194;-69
2023/07/25 06:16:36;;;;;;;9.38;3.00;;;;;;;;;;4316983;28;10000797;-69
2023/07/25 06:19:02;;;;;;;9.13;2.90;;;;;;;;;;4986132;28;20620;-69
2023/07/25 06:21:27;;;;;;;9.30;2.60;;;;;;;;;;5006482;28;20335;-69
2023/07/25 06:23:52;;;;;;;11.23;2.80;;;;;;;;;;5002769;28;20225;-69
2023/07/25 06:26:18;;;;;;;9.13;2.72;;;;;;;;;;5014901;28;20206;-69
2023/07/25 06:28:44;;;;;;;8.48;2.67;;;;;;;;;;4999351;28;20281;-69
2023/07/25 06:31:09;;;;;;;9.73;2.78;;;;;;;;;;4994298;28;20233;-70
2023/07/25 06:33:35;;;;;;;9.57;2.80;;;;;;;;;;5003154;28;20201;-71
2023/07/25 06:36:00;;;;;;;5.18;2.42;;;;;;;;;;5017038;28;20566;-70
2023/07/25 06:38:26;;;;;;;8.93;2.33;;;;;;;;;;5017972;28;20247;-70
2023/07/25 06:40:51;;;;;;;8.18;2.40;;;;;;;;;;5011361;28;20675;-70
2023/07/25 06:43:16;;;;;;;10.02;3.08;;;;;;;;;;4994956;28;20253;-70
2023/07/25 06:45:42;;;;;;;5.95;2.67;;;;;;;;;;5007310;28;20293;-69
2023/07/25 06:48:07;;;;;;;10.68;3.00;;;;;;;;;;5002145;28;20627;-70
2023/07/25 06:50:33;;;;;;;8.85;3.10;;;;;;;;;;5008413;28;20537;-68
2023/07/25 06:52:58;;;;;;;9.60;2.70;;;;;;;;;;5009483;28;20317;-69
2023/07/25 06:55:25;;;;;;;9.60;2.53;;;;;;;;;;5004334;28;20696;-69
2023/07/25 06:57:50;;;;;;;7.63;2.53;;;;;;;;;;5001036;28;20195;-70
2023/07/25 07:00:15;;;;;;;7.95;2.72;;;;;;;;;;5004039;28;20268;-71
2023/07/25 07:02:41;;;;;;;9.40;2.10;;;;;;;;;;5004939;28;20275;-70
2023/07/25 07:05:06;;;;;;;7.88;1.95;;;;;;;;;;5002920;28;20198;-71
2023/07/25 07:07:33;;;;;;;10.38;2.10;;;;;;;;;;4995693;28;20265;-69
2023/07/25 07:09:58;;;;;;;7.35;1.80;;;;;;;;;;5007013;28;20191;-71
2023/07/25 07:12:23;;;;;;;8.18;1.98;;;;;;;;;;4999964;28;20260;-70
2023/07/25 07:14:49;;;;;;;10.15;1.80;;;;;;;;;;4997147;28;20189;-71
2023/07/25 07:17:14;;;;;;;10.75;2.75;;;;;;;;;;5009901;28;20202;-70
2023/07/25 07:19:40;;;;;;;10.90;2.13;;;;;;;;;;5016046;28;20495;-69
2023/07/25 07:22:05;;;;;;;8.68;1.70;;;;;;;;;;5002156;28;20183;-70
2023/07/25 07:24:30;;;;;;;5.82;1.42;;;;;;;;;;5005272;28;20332;-71
2023/07/25 07:26:56;;;;;;;6.28;2.03;;;;;;;;;;4999517;28;20215;-70
2023/07/25 07:29:21;;;;;;;7.38;1.58;;;;;;;;;;5008370;28;20198;-70
2023/07/25 07:31:46;;;;;;;7.97;1.50;;;;;;;;;;4996767;28;20261;-70
2023/07/25 07:34:15;;;;;;;8.23;1.58;;;;;;;;;;4997565;28;20194;-70
2023/07/25 07:36:41;;;;;;;6.60;1.80;;;;;;;;;;5002592;28;20301;-71
2023/07/25 07:39:07;;;;;;;8.15;1.23;;;;;;;;;;4993588;28;20219;-71
2023/07/25 07:41:32;;;;;;;3.92;1.23;;;;;;;;;;5002665;28;20179;-69
2023/07/25 07:43:58;;;;;;;9.55;1.60;;;;;;;;;;5006734;28;20257;-71
2023/07/25 07:46:23;;;;;;;8.38;1.70;;;;;;;;;;5013222;28;20657;-71
2023/07/25 07:48:48;;;;;;;6.40;1.27;;;;;;;;;;5000381;28;20191;-70
2023/07/25 07:51:14;;;;;;;7.97;1.38;;;;;;;;;;4997805;28;20219;-70
2023/07/25 07:53:39;;;;;;;9.60;1.80;;;;;;;;;;5014476;28;20186;-71
2023/07/25 07:56:05;;;;;;;7.18;1.23;;;;;;;;;;5013869;28;20215;-69
2023/07/25 07:58:30;;;;;;;8.15;1.25;;;;;;;;;;4649585;28;10000301;-71
2023/07/25 08:00:56;;;;;;;7.93;1.42;;;;;;;;;;5010346;28;20199;-71
2023/07/25 08:03:21;;;;;;;9.10;1.63;;;;;;;;;;5000682;28;20377;-71
2023/07/25 08:05:46;;;;;;;9.73;1.67;;;;;;;;;;5006425;28;20186;-70
2023/07/25 08:08:14;;;;;;;7.10;1.70;;;;;;;;;;5020856;28;20218;-71
2023/07/25 08:10:39;;;;;;;6.38;1.20;;;;;;;;;;5008932;28;20191;-71
2023/07/25 08:13:05;;;;;;;9.00;1.40;;;;;;;;;;5008299;28;20218;-72
2023/07/25 08:15:30;;;;;;;5.90;1.33;;;;;;;;;;5010830;28;20207;-70
2023/07/25 08:17:56;;;;;;;9.15;1.88;;;;;;;;;;4994056;28;20295;-70
2023/07/25 08:20:21;;;;;;;10.45;1.70;;;;;;;;;;5004827;28;20195;-71
2023/07/25 08:22:46;;;;;;;5.47;1.45;;;;;;;;;;5012474;28;20189;-71
2023/07/25 08:25:12;;;;;;;13.27;2.38;;;;;;;;;;4998906;28;20264;-71
2023/07/25 08:27:37;;;;;;;8.75;1.77;;;;;;;;;;5014440;28;20288;-70
2023/07/25 08:30:03;;;;;;;11.70;1.60;;;;;;;;;;4996690;28;20191;-72
2023/07/25 08:32:28;;;;;;;9.55;1.65;;;;;;;;;;5005246;28;20222;-70
2023/07/25 08:34:54;;;;;;;6.75;1.40;;;;;;;;;;4998395;28;20203;-70
2023/07/25 08:37:19;;;;;;;9.10;1.55;;;;;;;;;;5006424;28;20202;-71
2023/07/25 08:39:44;;;;;;;11.45;1.60;;;;;;;;;;4998208;28;20650;-71
2023/07/25 08:42:11;;;;;;;4.07;1.05;;;;;;;;;;4993903;28;20214;-70
2023/07/25 08:44:38;;;;;;;8.88;1.50;;;;;;;;;;5007167;28;20509;-70
2023/07/25 08:47:21;;;;;;;7.45;1.63;;;;;;;;;;5005341;28;20338;-72
2023/07/25 08:49:49;;;;;;;6.13;1.10;;;;;;;;;;5012534;28;20201;-71
2023/07/25 08:52:17;;;;;;;5.97;1.17;;;;;;;;;;5023361;28;20296;-69
2023/07/25 08:54:45;;;;;;;6.18;1.30;;;;;;;;;;5015765;28;20198;-70
2023/07/25 08:57:12;;;;;;;8.32;1.67;;;;;;;;;;5007430;28;20214;-70
2023/07/25 08:59:38;;;;;;;8.32;1.60;;;;;;;;;;5003317;28;20246;-70
2023/07/25 09:02:05;;;;;;;5.68;1.40;;;;;;;;;;5004385;28;20187;-70
2023/07/25 09:04:31;;;;;;;5.20;1.08;;;;;;;;;;4993728;28;20191;-70
2023/07/25 09:06:59;;;;;;;6.90;1.25;;;;;;;;;;5002335;28;20183;-71
2023/07/25 09:09:24;;;;;;;4.30;1.20;;;;;;;;;;4990329;28;20226;-70
2023/07/25 09:11:50;;;;;;;8.13;1.17;;;;;;;;;;4986976;28;20186;-70
2023/07/25 09:14:16;;;;;;;7.90;1.17;;;;;;;;;;5002375;28;20202;-70
2023/07/25 09:16:41;;;;;;;4.38;0.90;;;;;;;;;;5006265;28;20214;-71
2023/07/25 09:19:07;;;;;;;6.07;1.10;;;;;;;;;;4996946;28;20183;-70
2023/07/25 09:21:45;;;;;;;6.75;1.10;;;;;;;;;;4994848;28;20199;-70
2023/07/25 09:24:10;;;;;;;2.55;0.68;;;;;;;;;;5010364;28;20186;-69
2023/07/25 09:26:38;;;;;;;4.85;0.88;;;;;;;;;;4998980;28;20495;-69
2023/07/25 09:29:03;;;;;;;3.97;0.90;;;;;;;;;;5002781;28;20290;-71
2023/07/25 09:31:29;;;;;;;3.58;0.88;;;;;;;;;;4995782;28;20281;-71
2023/07/25 09:33:55;;;;;;;3.35;0.90;;;;;;;;;;5020195;28;20187;-70
2023/07/25 09:36:21;;;;;;;3.90;0.70;;;;;;;;;;5006361;28;20736;-69
2023/07/25 09:38:52;;;;;;;3.22;1.33;;;;;;;;;;4996888;28;20227;-69
2023/07/25 09:41:18;;;;;;;4.32;0.90;;;;;;;;;;4997300;28;20663;-70
2023/07/25 09:43:44;;;;;;;5.25;0.90;;;;;;;;;;4995738;28;20282;-70
2023/07/25 09:46:10;;;;;;;2.38;0.57;;;;;;;;;;4996818;28;20370;-70
2023/07/25 09:48:35;;;;;;;3.28;0.70;;;;;;;;;;5008559;28;20225;-70
2023/07/25 09:51:03;;;;;;;4.38;1.00;;;;;;;;;;5009427;28;20239;-70
2023/07/25 09:53:29;;;;;;;2.05;0.57;;;;;;;;;;5006995;28;20277;-69
2023/07/25 09:55:55;;;;;;;2.45;0.70;;;;;;;;;;5008348;28;20206;-69
2023/07/25 09:58:21;;;;;;;3.42;0.65;;;;;;;;;;5005976;28;20493;-69
2023/07/25 10:00:48;;;;;;;6.13;1.15;;;;;;;;;;5014863;28;20293;-71
2023/07/25 10:03:13;;;;;;;3.60;0.90;;;;;;;;;;5008024;28;20203;-70
2023/07/25 10:05:44;;;;;;;3.97;0.70;;;;;;;;;;5013959;28;20191;-71
2023/07/25 10:08:14;;;;;;;3.97;1.00;;;;;;;;;;5009339;28;20203;-72
2023/07/25 10:10:41;;;;;;;5.47;0.88;;;;;;;;;;4999591;28;20206;-71
2023/07/25 10:13:08;;;;;;;7.95;1.08;;;;;;;;;;4995859;28;20374;-69
2023/07/25 10:15:34;;;;;;;4.07;0.90;;;;;;;;;;4993051;28;20203;-70
2023/07/25 10:18:04;;;;;;;2.65;0.70;;;;;;;;;;5001481;28;20211;-70
2023/07/25 10:20:29;;;;;;;3.42;0.70;;;;;;;;;;5008828;28;20256;-69
2023/07/25 10:23:06;;;;;;;5.07;1.23;;;;;;;;;;5002354;28;20623;-69
2023/07/25 10:25:32;;;;;;;3.85;0.70;;;;;;;;;;5008332;28;20252;-68
2023/07/25 10:28:07;;;;;;;4.60;0.90;;;;;;;;;;4988396;28;20223;-69
2023/07/25 10:30:44;;;;;;;4.40;0.80;;;;;;;;;;5003116;28;20557;-69
2023/07/25 10:33:12;;;;;;;3.10;0.57;;;;;;;;;;5011277;28;20200;-71
2023/07/25 10:35:49;;;;;;;1.92;0.47;;;;;;;;;;5005444;28;20215;-70
2023/07/25 10:38:29;;;;;;;3.53;0.57;;;;;;;;;;5010988;28;20198;-68
2023/07/25 10:40:57;;;;;;;6.22;0.70;;;;;;;;;;5004622;28;20191;-70
2023/07/25 10:43:27;;;;;;;6.40;0.90;;;;;;;;;;5002982;28;20606;-70
2023/07/25 10:45:55;;;;;;;5.95;0.80;;;;;;;;;;5002689;28;20179;-71
2023/07/25 10:48:31;;;;;;;2.08;0.70;;;;;;;;;;5014897;28;20244;-69
2023/07/25 10:50:58;;;;;;;1.95;0.60;;;;;;;;;;5013882;28;20182;-70
2023/07/25 10:53:24;;;;;;;3.95;0.98;;;;;;;;;;5006397;28;20210;-70
2023/07/25 10:56:05;;;;;;;3.85;0.75;;;;;;;;;;5017388;28;20210;-70
2023/07/25 10:58:37;;;;;;;4.13;0.60;;;;;;;;;;5003855;28;20553;-73
2023/07/25 11:01:02;;;;;;;3.67;0.90;;;;;;;;;;5003665;28;20285;-71
2023/07/25 11:03:30;;;;;;;2.83;0.47;;;;;;;;;;5009606;28;20297;-70
2023/07/25 11:06:07;;;;;;;2.70;0.68;;;;;;;;;;5010544;28;20183;-68
2023/07/25 11:08:33;;;;;;;2.70;0.80;;;;;;;;;;5008859;28;20590;-69
2023/07/25 11:11:03;;;;;;;2.83;0.68;;;;;;;;;;5003894;28;20199;-70
2023/07/25 11:13:29;;;;;;;3.15;0.63;;;;;;;;;;4999600;28;20692;-70
2023/07/25 11:15:55;;;;;;;2.10;0.52;;;;;;;;;;5016409;28;20202;-70
2023/07/25 11:18:20;;;;;;;3.95;0.60;;;;;;;;;;5004089;28;20626;-71
2023/07/25 11:20:58;;;;;;;3.65;0.80;;;;;;;;;;4999469;28;20191;-71
2023/07/25 11:23:23;;;;;;;2.42;0.90;;;;;;;;;;5000677;28;20190;-70
2023/07/25 11:25:54;;;;;;;1.35;0.50;;;;;;;;;;5012672;28;20194;-70
2023/07/25 11:28:21;;;;;;;3.05;0.57;;;;;;;;;;5005362;28;20771;-68
2023/07/25 11:30:46;;;;;;;3.55;0.70;;;;;;;;;;5008708;28;20277;-69
2023/07/25 11:33:13;;;;;;;4.43;0.85;;;;;;;;;;5004408;28;20214;-69
2023/07/25 11:35:38;;;;;;;1.83;0.77;;;;;;;;;;5001840;28;20577;-69
2023/07/25 11:38:03;;;;;;;3.70;0.95;;;;;;;;;;5005913;28;20505;-70
2023/07/25 11:40:29;;;;;;;3.50;1.00;;;;;;;;;;5005369;28;20499;-71
2023/07/25 11:42:56;;;;;;;2.20;0.60;;;;;;;;;;5008368;28;20186;-71
2023/07/25 11:45:22;;;;;;;1.67;0.60;;;;;;;;;;4997197;28;20278;-70
2023/07/25 11:47:52;;;;;;;2.58;0.68;;;;;;;;;;5002646;28;20511;-70
2023/07/25 11:50:20;;;;;;;3.33;1.00;;;;;;;;;;5009191;28;20646;-70
2023/07/25 11:52:46;;;;;;;1.70;0.88;;;;;;;;;;5016140;28;20654;-67
2023/07/25 11:55:13;;;;;;;2.20;0.80;;;;;;;;;;5014085;28;20260;-71
2023/07/25 11:57:43;;;;;;;4.20;0.60;;;;;;;;;;4998099;28;20222;-71
2023/07/25 12:00:11;;;;;;;2.90;1.00;;;;;;;;;;5010178;28;20217;-70
2023/07/25 12:02:38;;;;;;;3.42;0.95;;;;;;;;;;5007645;28;20199;-71
2023/07/25 12:05:04;;;;;;;2.42;0.68;;;;;;;;;;5004743;28;20198;-69
2023/07/25 12:07:49;;;;;;;2.45;0.90;;;;;;;;;;5010682;28;20195;-69
2023/07/25 12:10:25;;;;;;;1.80;0.65;;;;;;;;;;5004247;28;20183;-72
2023/07/25 12:12:50;;;;;;;3.55;0.70;;;;;;;;;;5019743;28;20190;-71
2023/07/25 12:15:16;;;;;;;1.38;0.65;;;;;;;;;;5015068;28;20202;-72
2023/07/25 12:17:45;;;;;;;4.70;0.60;;;;;;;;;;5010400;28;20261;-72
2023/07/25 12:20:18;;;;;;;2.92;0.60;;;;;;;;;;5007935;28;20186;-70
2023/07/25 12:22:45;;;;;;;2.05;0.60;;;;;;;;;;5009058;28;20319;-71
2023/07/25 12:25:15;;;;;;;1.42;0.47;;;;;;;;;;4988741;28;20187;-70
2023/07/25 12:27:48;;;;;;;1.98;0.40;;;;;;;;;;5014122;28;20742;-71
2023/07/25 12:30:14;;;;;;;4.80;0.85;;;;;;;;;;5031150;28;20331;-68
2023/07/25 12:32:39;;;;;;;4.57;0.60;;;;;;;;;;5021149;28;20260;-70
2023/07/25 12:35:05;;;;;;;3.65;0.80;;;;;;;;;;5002118;28;20187;-69
2023/07/25 12:37:31;;;;;;;7.85;0.80;;;;;;;;;;5019131;28;20231;-70
2023/07/25 12:39:57;;;;;;;1.75;0.43;;;;;;;;;;4986698;28;20183;-73
2023/07/25 12:42:22;;;;;;;3.20;0.73;;;;;;;;;;5009511;28;20199;-74
2023/07/25 12:44:47;;;;;;;2.00;0.70;;;;;;;;;;5001662;28;20592;-70
2023/07/25 12:47:13;;;;;;;3.78;0.60;;;;;;;;;;5013736;28;20190;-70
2023/07/25 12:49:38;;;;;;;1.20;0.55;;;;;;;;;;5007185;28;20580;-71
2023/07/25 12:52:04;;;;;;;2.67;0.70;;;;;;;;;;5011133;28;20198;-70
2023/07/25 12:54:29;;;;;;;0.82;0.50;;;;;;;;;;5001307;28;20191;-71
2023/07/25 12:56:55;;;;;;;3.00;0.60;;;;;;;;;;5008694;28;20219;-70
2023/07/25 12:59:20;;;;;;;3.40;0.68;;;;;;;;;;5011486;28;20218;-69
2023/07/25 13:01:47;;;;;;;2.05;0.50;;;;;;;;;;5010857;28;20550;-70
2023/07/25 13:04:13;;;;;;;1.77;0.35;;;;;;;;;;5012083;28;20191;-72
2023/07/25 13:06:38;;;;;;;1.70;0.45;;;;;;;;;;5010413;28;20244;-71
2023/07/25 13:09:04;;;;;;;1.23;0.40;;;;;;;;;;5008547;28;20186;-70
2023/07/25 13:11:29;;;;;;;0.93;0.43;;;;;;;;;;5004305;28;20191;-70
2023/07/25 13:13:55;;;;;;;3.15;0.85;;;;;;;;;;5011546;28;20205;-69
2023/07/25 13:16:20;;;;;;;2.55;0.70;;;;;;;;;;5010573;28;20210;-69
2023/07/25 13:18:45;;;;;;;2.10;0.70;;;;;;;;;;5007892;28;20211;-69
2023/07/25 13:21:11;;;;;;;2.70;0.60;;;;;;;;;;5006547;28;20194;-69
2023/07/25 13:23:36;;;;;;;4.93;0.80;;;;;;;;;;5011117;28;20277;-70
2023/07/25 13:26:02;;;;;;;2.53;0.80;;;;;;;;;;5009424;28;20630;-70
2023/07/25 13:28:27;;;;;;;3.38;1.02;;;;;;;;;;5001821;28;20239;-68
2023/07/25 13:30:52;;;;;;;5.55;0.80;;;;;;;;;;5010329;28;20308;-70
2023/07/25 13:33:18;;;;;;;5.03;1.17;;;;;;;;;;4989564;28;20194;-69
2023/07/25 13:35:43;;;;;;;2.20;0.80;;;;;;;;;;5005607;28;20314;-72
2023/07/25 13:38:09;;;;;;;2.47;0.70;;;;;;;;;;5001791;28;20672;-69
2023/07/25 13:40:34;;;;;;;1.70;0.70;;;;;;;;;;5011560;28;20183;-69
2023/07/25 13:43:00;;;;;;;3.10;0.60;;;;;;;;;;5007854;28;20462;-68
2023/07/25 13:45:25;;;;;;;4.20;0.85;;;;;;;;;;5010469;28;20689;-70
2023/07/25 13:47:50;;;;;;;4.47;1.02;;;;;;;;;;5004152;28;20286;-69
2023/07/25 13:50:16;;;;;;;6.05;1.38;;;;;;;;;;5008771;28;20606;-69
2023/07/25 13:52:41;;;;;;;5.18;0.70;;;;;;;;;;5005049;28;20225;-72
2023/07/25 13:55:07;;;;;;;3.03;0.80;;;;;;;;;;4297902;28;10000956;-69
2023/07/25 13:57:32;;;;;;;4.30;0.85;;;;;;;;;;4987438;28;20202;-69
2023/07/25 13:59:58;;;;;;;3.55;1.23;;;;;;;;;;5009073;28;20194;-70
2023/07/25 14:02:23;;;;;;;5.03;1.00;;;;;;;;;;5004340;28;20244;-67
2023/07/25 14:04:48;;;;;;;3.45;1.02;;;;;;;;;;5006704;28;20198;-71
2023/07/25 14:07:14;;;;;;;4.75;1.00;;;;;;;;;;5006452;28;21816;-71
2023/07/25 14:09:39;;;;;;;3.92;1.13;;;;;;;;;;4997200;28;20191;-68
2023/07/25 14:12:05;;;;;;;7.55;1.02;;;;;;;;;;5008221;28;20199;-68
2023/07/25 14:14:31;;;;;;;3.08;0.70;;;;;;;;;;5009334;28;20199;-68
2023/07/25 14:16:56;;;;;;;3.92;0.73;;;;;;;;;;5006488;28;20697;-70
2023/07/25 14:19:22;;;;;;;3.40;0.80;;;;;;;;;;4999669;28;20277;-69
2023/07/25 14:21:47;;;;;;;3.55;0.80;;;;;;;;;;5002941;28;20719;-72
2023/07/25 14:24:13;;;;;;;3.38;0.80;;;;;;;;;;4996366;28;20202;-69
2023/07/25 14:26:38;;;;;;;5.95;0.90;;;;;;;;;;5008953;28;20205;-69
2023/07/25 14:29:04;;;;;;;5.05;1.00;;;;;;;;;;5004694;28;20195;-71
2023/07/25 14:31:29;;;;;;;2.85;0.70;;;;;;;;;;5008419;28;20191;-70